Aeroporto :
LOGIN :

Iscrizione | Disclaimer

   EN    FR    IT 

 










Sommario :    VFR   VFR Marginale   IFR   IFR Intensivo   IFR Molto Intensivo
Visibilità : 
Base nubi : 
>= 8 km
>= 3000ft
5 / 8 km
1000 / 3000 ft
1500m / 5 km
500 / 1000 ft
800 / 1500m
200 / 500 ft
< 800m
< 200 ft
Simboli :   Temporali  Nebbia  Neve Forte  Precipitazioni Forti  Vento > 20 kt
SIGMETs :   Varie  Temporali  Ghiacco  Turbolenza  Onda orograficha  Ceneri Vulcaniche






- Altitudine del aeroporto : 436 ft
- Codice IATA : BTS


LZIB - Bratislava

ULTIMO METAR :
  • 120000Z 02005KT 9999 SCT035 BKN056 M03/M05 Q1011

METARs OBSOLETI :
  • 112330Z 02006KT 9999 SCT035 BKN055 M04/M05 Q1012
  • 112300Z 04006KT 9999 BKN037 M03/M05 Q1012
  • 112230Z 05006KT 9999 SCT042 M03/M05 Q1012
  • 112200Z 05006KT 9999 SCT044 M03/M04 Q1012
  • 112130Z 05005KT 9999 FEW045 M04/M05 Q1012

TAF TAF LZIB
Valido dal 12 a 00 ore il 13 a 00 ore UTC


112300Z 1200/1300 07006KT 9999 SCT040 SCT090
BECMG 1204/1206 BKN033
TEMPO 1208/1300 6000 -SN SCT018 BKN040
PROB40
TEMPO 1212/1222 VRB02KT 3200 -SN SCT010 OVC030



MetMap, La meteo Aeronautica in un colpo d'occhio ! - Copyright ORBIFLY Dicembre 2007 - Disclaimer

ORBIFLY MET'MAP TEAM :

Programmazione e sviluppo : Alexandra Zaïnal
Concezione : Baudouin d'Aumeries
Aiuto per la programmazione : Marc-Olivier Méhu
Supporto tecnico e logistico : Manuel Goepfert
Aiuto per la traduzione : Arnaldo La Scala

Contatto : metmap@orbifly.com




FONTI E CREDITI :

   NOAA